createdAt,value
2022-12-08T00:01:30.048Z,99.90
2022-12-08T00:03:59.848Z,99.90
2022-12-08T00:06:55.962Z,99.90
2022-12-08T00:09:41.961Z,99.90
2022-12-08T00:12:15.271Z,99.90
2022-12-08T00:14:45.921Z,99.90
2022-12-08T00:17:16.131Z,99.90
2022-12-08T00:19:43.993Z,99.90
2022-12-08T00:22:15.215Z,99.90
2022-12-08T00:24:45.420Z,99.90
2022-12-08T00:27:15.354Z,99.90
2022-12-08T00:29:44.689Z,99.90
2022-12-08T00:32:11.669Z,99.90
2022-12-08T00:34:38.401Z,99.90
2022-12-08T00:37:05.139Z,99.90
2022-12-08T00:39:32.100Z,99.90
2022-12-08T00:42:14.102Z,99.90
2022-12-08T00:44:43.463Z,99.90
2022-12-08T00:47:12.034Z,99.90
2022-12-08T00:49:38.994Z,99.90
2022-12-08T00:52:06.063Z,99.90
2022-12-08T00:54:32.811Z,99.90
2022-12-08T00:56:59.515Z,99.90
2022-12-08T00:59:26.249Z,99.90
2022-12-08T01:01:52.955Z,99.90
2022-12-08T01:04:20.832Z,99.90
2022-12-08T01:06:48.351Z,99.90
2022-12-08T01:09:17.357Z,99.90
2022-12-08T01:11:45.092Z,99.90
2022-12-08T01:14:12.567Z,99.90
2022-12-08T01:16:41.382Z,99.90
2022-12-08T01:19:11.409Z,99.90
2022-12-08T01:21:38.328Z,99.90
2022-12-08T01:24:05.771Z,99.90
2022-12-08T01:26:32.567Z,99.90
2022-12-08T01:28:59.396Z,99.90
2022-12-08T01:31:26.208Z,99.90
2022-12-08T01:33:53.225Z,99.90
2022-12-08T01:36:30.146Z,99.90
2022-12-08T01:39:00.224Z,99.90
2022-12-08T01:41:33.469Z,99.90
2022-12-08T01:44:09.269Z,99.90
2022-12-08T01:46:40.769Z,99.90
2022-12-08T01:49:18.349Z,99.90
2022-12-08T01:52:28.908Z,99.90
2022-12-08T01:55:08.562Z,99.90
2022-12-08T01:57:53.694Z,99.90
2022-12-08T02:00:22.755Z,99.90
2022-12-08T02:03:03.216Z,99.90
2022-12-08T02:05:35.699Z,99.90
2022-12-08T02:08:08.111Z,99.90
2022-12-08T02:10:39.701Z,99.90
2022-12-08T02:13:12.824Z,99.90
2022-12-08T02:16:04.381Z,99.90
2022-12-08T02:19:29.089Z,99.90
2022-12-08T02:21:54.576Z,99.90
2022-12-08T02:24:27.021Z,99.90
2022-12-08T02:27:18.159Z,99.90
2022-12-08T02:30:12.734Z,99.90
2022-12-08T02:32:48.211Z,99.90
2022-12-08T02:35:28.879Z,99.90
2022-12-08T02:38:07.917Z,99.90
2022-12-08T02:41:13.730Z,99.90
2022-12-08T02:43:49.296Z,99.90
2022-12-08T02:46:33.104Z,99.90
2022-12-08T02:49:02.021Z,99.90
2022-12-08T02:51:28.836Z,99.90
2022-12-08T02:53:56.045Z,99.90
2022-12-08T02:57:14.391Z,99.90
2022-12-08T03:00:09.700Z,99.90
2022-12-08T03:02:51.039Z,99.90
2022-12-08T03:05:44.987Z,99.90
2022-12-08T03:08:28.262Z,99.90
2022-12-08T03:11:13.993Z,99.90
2022-12-08T03:13:50.227Z,99.90
2022-12-08T03:16:24.569Z,99.90
2022-12-08T03:19:06.471Z,99.90
2022-12-08T03:21:35.815Z,99.90
2022-12-08T03:24:07.496Z,99.90
2022-12-08T03:26:50.925Z,99.90
2022-12-08T03:29:18.698Z,99.90
2022-12-08T03:32:01.232Z,99.90
2022-12-08T03:34:30.208Z,99.90
2022-12-08T03:36:57.085Z,99.90
2022-12-08T03:39:24.193Z,99.90
2022-12-08T03:41:50.964Z,99.90
2022-12-08T03:44:17.647Z,99.90
2022-12-08T03:46:44.379Z,99.90
2022-12-08T03:49:11.527Z,99.90
2022-12-08T03:51:38.226Z,99.90
2022-12-08T03:54:05.116Z,99.90
2022-12-08T03:56:36.776Z,99.90
2022-12-08T03:59:05.301Z,99.90
2022-12-08T04:01:32.255Z,99.90
2022-12-08T04:03:59.076Z,99.90
2022-12-08T04:06:25.910Z,99.90
2022-12-08T04:08:53.780Z,99.90
2022-12-08T04:11:21.375Z,99.90
2022-12-08T04:13:48.681Z,99.90
2022-12-08T04:16:24.899Z,99.90
2022-12-08T04:18:52.355Z,99.90
2022-12-08T04:21:19.174Z,99.90
2022-12-08T04:23:46.815Z,99.90
2022-12-08T04:26:16.353Z,99.90
2022-12-08T04:28:43.266Z,99.90
2022-12-08T04:31:10.203Z,99.90
2022-12-08T04:33:36.992Z,99.90
2022-12-08T04:36:05.693Z,99.90
2022-12-08T04:38:34.047Z,99.90
2022-12-08T04:41:01.480Z,99.90
2022-12-08T04:43:28.697Z,99.90
2022-12-08T04:45:55.691Z,99.90
2022-12-08T04:48:22.442Z,99.90
2022-12-08T04:50:49.195Z,99.90
2022-12-08T04:53:15.985Z,99.90
2022-12-08T04:55:44.864Z,99.90
2022-12-08T04:58:14.716Z,99.90
2022-12-08T05:00:42.616Z,99.90
2022-12-08T05:03:09.922Z,99.90
2022-12-08T05:05:36.794Z,99.90
2022-12-08T05:08:04.027Z,99.90
2022-12-08T05:10:31.565Z,99.90
2022-12-08T05:13:00.700Z,99.90
2022-12-08T05:15:27.568Z,99.90
2022-12-08T05:17:54.408Z,99.90
2022-12-08T05:20:21.509Z,99.90
2022-12-08T05:22:48.210Z,99.90
2022-12-08T05:25:15.251Z,99.90
2022-12-08T05:27:42.993Z,99.90
2022-12-08T05:30:10.021Z,99.90
2022-12-08T05:32:37.005Z,99.90
2022-12-08T05:35:03.861Z,99.90
2022-12-08T05:37:30.846Z,99.90
2022-12-08T05:39:57.624Z,99.90
2022-12-08T05:42:25.101Z,99.90
2022-12-08T05:44:52.724Z,99.90
2022-12-08T05:47:19.535Z,99.90
2022-12-08T05:49:46.346Z,99.90
2022-12-08T05:52:13.085Z,99.90
2022-12-08T05:54:39.841Z,99.90
2022-12-08T05:57:06.748Z,99.90
2022-12-08T05:59:33.548Z,99.90
2022-12-08T06:02:00.451Z,99.90
2022-12-08T06:04:27.304Z,99.90
2022-12-08T06:06:53.994Z,99.90
2022-12-08T06:09:20.683Z,99.90
2022-12-08T06:11:47.483Z,99.90
2022-12-08T06:14:14.267Z,99.90
2022-12-08T06:16:41.152Z,99.90
2022-12-08T06:19:07.976Z,99.90
2022-12-08T06:21:34.758Z,99.90
2022-12-08T06:24:01.526Z,99.90
2022-12-08T06:26:28.872Z,99.90
2022-12-08T06:28:55.844Z,99.90
2022-12-08T06:31:26.992Z,99.90
2022-12-08T06:33:55.108Z,99.90
2022-12-08T06:36:25.696Z,99.90
2022-12-08T06:38:52.417Z,99.90
2022-12-08T06:41:19.254Z,99.90
2022-12-08T06:43:46.735Z,99.90
2022-12-08T06:46:19.733Z,99.90
2022-12-08T06:48:46.730Z,99.90
2022-12-08T06:51:17.887Z,99.90
2022-12-08T06:53:46.404Z,99.90
2022-12-08T06:56:15.771Z,99.90
2022-12-08T06:58:46.096Z,99.90
2022-12-08T07:01:17.381Z,99.90
2022-12-08T07:03:44.385Z,99.90
2022-12-08T07:06:18.168Z,99.90
2022-12-08T07:08:44.916Z,99.90
2022-12-08T07:11:16.688Z,99.90
2022-12-08T07:13:48.119Z,99.90
2022-12-08T07:16:14.972Z,99.90
2022-12-08T07:18:42.882Z,99.90
2022-12-08T07:21:14.892Z,99.90
2022-12-08T07:23:43.219Z,99.90
2022-12-08T07:26:12.679Z,99.90
2022-12-08T07:28:42.192Z,99.90
2022-12-08T07:31:21.537Z,99.90
2022-12-08T07:33:50.065Z,99.90
2022-12-08T07:36:17.336Z,99.90
2022-12-08T07:38:44.669Z,99.90
2022-12-08T07:41:16.992Z,99.90
2022-12-08T07:43:44.335Z,99.90
2022-12-08T07:46:17.918Z,99.90
2022-12-08T07:48:46.114Z,99.90
2022-12-08T07:51:15.572Z,99.90
2022-12-08T07:53:49.857Z,99.90
2022-12-08T07:56:20.141Z,99.90
2022-12-08T07:58:46.942Z,99.90
2022-12-08T08:01:40.041Z,99.90
2022-12-08T08:04:07.204Z,99.90
2022-12-08T08:06:36.847Z,99.90
2022-12-08T08:09:04.355Z,99.90
2022-12-08T08:11:31.083Z,99.90
2022-12-08T08:13:58.401Z,99.90
2022-12-08T08:16:25.249Z,99.90
2022-12-08T08:18:52.420Z,99.90
2022-12-08T08:21:44.274Z,99.90
2022-12-08T08:24:08.722Z,99.90
2022-12-08T08:26:36.964Z,99.90
2022-12-08T08:29:04.050Z,99.90
2022-12-08T08:31:30.874Z,99.90
2022-12-08T08:33:57.700Z,99.90
2022-12-08T08:36:24.393Z,99.90
2022-12-08T08:38:53.381Z,99.90
2022-12-08T08:41:20.091Z,99.90
2022-12-08T08:43:46.823Z,99.90
2022-12-08T08:46:13.608Z,99.90
2022-12-08T08:48:40.790Z,99.90
2022-12-08T08:51:13.449Z,99.90
2022-12-08T08:53:41.598Z,99.90
2022-12-08T08:56:14.263Z,99.90
2022-12-08T08:58:41.677Z,99.90
2022-12-08T09:01:08.702Z,99.90
2022-12-08T09:03:35.435Z,99.90
2022-12-08T09:06:02.223Z,99.90
2022-12-08T09:08:29.159Z,99.90
2022-12-08T09:10:55.939Z,99.90
2022-12-08T09:13:22.776Z,99.90
2022-12-08T09:15:49.720Z,99.90
2022-12-08T09:18:16.501Z,99.90
2022-12-08T09:20:43.375Z,99.90
2022-12-08T09:23:10.167Z,99.90
2022-12-08T09:25:36.975Z,99.90
2022-12-08T09:28:03.787Z,99.90
2022-12-08T09:30:30.529Z,99.90
2022-12-08T09:32:57.369Z,99.90
2022-12-08T09:35:24.054Z,99.90
2022-12-08T09:37:50.752Z,99.90
2022-12-08T09:40:21.061Z,99.90
2022-12-08T09:43:31.861Z,99.90
2022-12-08T09:45:59.483Z,99.90
2022-12-08T09:48:37.043Z,99.90
2022-12-08T09:51:05.748Z,99.90
2022-12-08T09:53:53.296Z,99.90
2022-12-08T09:56:24.585Z,99.90
2022-12-08T09:59:03.717Z,99.90
2022-12-08T10:01:35.125Z,99.90
2022-12-08T10:04:02.182Z,99.90
2022-12-08T10:06:53.037Z,99.90
2022-12-08T10:09:47.586Z,99.90
2022-12-08T10:12:45.146Z,99.90
2022-12-08T10:15:41.655Z,99.90
2022-12-08T10:18:22.973Z,99.90
2022-12-08T10:20:51.659Z,99.90
2022-12-08T10:23:34.644Z,99.90
2022-12-08T10:26:05.644Z,99.90
2022-12-08T10:28:34.363Z,99.90
2022-12-08T10:31:01.319Z,99.90
2022-12-08T10:33:31.086Z,99.90
2022-12-08T10:36:02.852Z,99.90
2022-12-08T10:38:38.585Z,99.90
2022-12-08T10:41:18.032Z,99.90
2022-12-08T10:43:57.854Z,99.90
2022-12-08T10:46:27.862Z,99.90
2022-12-08T10:49:10.878Z,99.90
2022-12-08T10:51:42.699Z,99.90
2022-12-08T10:54:38.318Z,99.90
2022-12-08T10:57:05.007Z,99.90
2022-12-08T10:59:33.985Z,99.90
2022-12-08T11:02:01.202Z,99.90
2022-12-08T11:04:40.945Z,99.90
2022-12-08T11:07:11.556Z,99.90
2022-12-08T11:09:48.760Z,99.90
2022-12-08T11:12:17.306Z,99.90
2022-12-08T11:14:43.930Z,99.90
2022-12-08T11:17:27.571Z,99.90
2022-12-08T11:20:03.963Z,99.90
2022-12-08T11:22:34.190Z,99.90
2022-12-08T11:25:20.463Z,99.90
2022-12-08T11:27:50.458Z,99.90
2022-12-08T11:30:20.933Z,99.90
2022-12-08T11:33:12.566Z,99.90
2022-12-08T11:35:43.990Z,99.90
2022-12-08T11:38:23.647Z,99.90
2022-12-08T11:41:15.553Z,99.90
2022-12-08T11:44:22.714Z,99.90
2022-12-08T11:47:06.565Z,92.80
2022-12-08T11:49:40.148Z,70.60
2022-12-08T11:52:33.625Z,71.10
2022-12-08T11:55:37.044Z,74.90
2022-12-08T11:58:41.055Z,83.10
2022-12-08T12:01:23.744Z,79.40
2022-12-08T12:04:16.344Z,79.70
2022-12-08T12:07:18.554Z,81.50
2022-12-08T12:10:20.761Z,84.10
2022-12-08T12:13:35.284Z,86.90
2022-12-08T12:16:29.343Z,88.30
2022-12-08T12:19:10.247Z,90.40
2022-12-08T12:21:47.985Z,90.90
2022-12-08T12:24:36.202Z,92.80
2022-12-08T12:27:13.271Z,94.80
2022-12-08T12:29:55.495Z,95.90
2022-12-08T12:32:24.449Z,97.40
2022-12-08T12:34:56.933Z,98.60
2022-12-08T12:37:38.347Z,99.80
2022-12-08T12:40:18.396Z,99.90
2022-12-08T12:43:09.575Z,99.90
2022-12-08T12:45:43.369Z,99.90
2022-12-08T12:48:19.579Z,99.90
2022-12-08T12:50:51.695Z,99.90
2022-12-08T12:53:18.874Z,99.90
2022-12-08T12:55:45.489Z,99.90
2022-12-08T12:58:30.221Z,99.90
2022-12-08T13:01:14.960Z,99.90
2022-12-08T13:04:01.590Z,99.90
2022-12-08T13:06:58.565Z,99.90
2022-12-08T13:09:39.102Z,99.90
2022-12-08T13:12:19.735Z,99.90
2022-12-08T13:14:50.614Z,99.90
2022-12-08T13:17:37.052Z,99.90
2022-12-08T13:20:16.667Z,99.90
2022-12-08T13:23:13.466Z,99.90
2022-12-08T13:25:40.092Z,99.90
2022-12-08T13:28:31.128Z,99.90
2022-12-08T13:31:01.819Z,99.90
2022-12-08T13:33:39.175Z,99.90
2022-12-08T13:36:23.902Z,99.90
2022-12-08T13:38:58.254Z,99.90
2022-12-08T13:41:47.623Z,99.90
2022-12-08T13:45:18.700Z,99.90
2022-12-08T13:47:33.320Z,99.90
2022-12-08T13:59:21.100Z,99.90
2022-12-08T14:01:50.669Z,99.90
2022-12-08T14:04:47.985Z,99.90
2022-12-08T14:07:12.016Z,99.90
2022-12-08T14:09:41.312Z,99.90
2022-12-08T14:12:43.306Z,99.90
2022-12-08T14:15:15.159Z,99.90
2022-12-08T14:17:51.246Z,99.90
2022-12-08T14:20:28.084Z,99.90
2022-12-08T14:22:56.025Z,99.90
2022-12-08T14:25:24.007Z,99.90
2022-12-08T14:27:58.893Z,99.90
2022-12-08T14:30:31.116Z,99.90
2022-12-08T14:33:01.021Z,99.90
2022-12-08T14:35:38.980Z,99.90
2022-12-08T14:38:17.955Z,99.90
2022-12-08T14:40:48.795Z,99.90
2022-12-08T14:43:25.619Z,99.90
2022-12-08T14:45:59.916Z,99.90
2022-12-08T14:48:38.385Z,99.90
2022-12-08T14:51:23.057Z,99.90
2022-12-08T14:54:06.344Z,99.90
2022-12-08T14:56:53.540Z,99.90
2022-12-08T14:59:31.016Z,99.90
2022-12-08T15:02:15.667Z,99.90
2022-12-08T15:04:47.810Z,99.90
2022-12-08T15:07:24.760Z,99.90
2022-12-08T15:10:27.492Z,99.90
2022-12-08T15:13:09.436Z,99.90
2022-12-08T15:15:55.207Z,99.90
2022-12-08T15:18:40.342Z,99.90
2022-12-08T15:21:12.647Z,99.90
2022-12-08T15:23:45.505Z,99.90
2022-12-08T15:26:27.833Z,99.90
2022-12-08T15:28:56.039Z,99.90
2022-12-08T15:31:22.808Z,99.90
2022-12-08T15:33:49.590Z,99.90
2022-12-08T15:36:16.571Z,99.90
2022-12-08T15:38:43.567Z,99.90
2022-12-08T15:41:14.996Z,99.90
2022-12-08T15:43:42.270Z,99.90
2022-12-08T15:46:08.993Z,99.90
2022-12-08T15:48:38.221Z,99.90
2022-12-08T15:51:05.005Z,99.90
2022-12-08T15:53:31.719Z,99.90
2022-12-08T15:56:26.933Z,99.90
2022-12-08T15:58:56.614Z,99.90
2022-12-08T16:01:24.437Z,99.90
2022-12-08T16:09:40.045Z,99.90
2022-12-08T16:13:40.470Z,99.90
2022-12-08T16:18:31.101Z,99.90
2022-12-08T16:21:09.575Z,99.90
2022-12-08T16:23:44.987Z,99.90
2022-12-08T16:27:01.248Z,99.90
2022-12-08T16:29:09.335Z,99.90
2022-12-08T16:31:37.062Z,99.90
2022-12-08T16:34:03.981Z,99.90
2022-12-08T16:36:30.672Z,99.90
2022-12-08T16:38:57.394Z,99.90
2022-12-08T16:41:42.888Z,99.90
2022-12-08T16:44:09.598Z,99.90
2022-12-08T16:46:36.922Z,99.90
2022-12-08T16:49:08.094Z,99.90
2022-12-08T16:51:35.215Z,99.90
2022-12-08T16:54:01.965Z,99.90
2022-12-08T16:56:33.090Z,99.90
2022-12-08T16:59:02.227Z,99.90
2022-12-08T17:01:29.354Z,99.90
2022-12-08T17:06:42.962Z,99.90
2022-12-08T17:09:09.792Z,99.90
2022-12-08T17:11:42.664Z,99.90
2022-12-08T17:14:12.484Z,99.90
2022-12-08T17:16:39.538Z,99.90
2022-12-08T17:19:06.312Z,99.90
2022-12-08T17:21:33.031Z,99.90
2022-12-08T17:23:59.714Z,99.90
2022-12-08T17:26:26.513Z,99.90
2022-12-08T17:29:01.523Z,99.90
2022-12-08T17:31:31.516Z,99.90
2022-12-08T17:34:04.668Z,99.90
2022-12-08T17:36:31.601Z,99.90
2022-12-08T17:39:00.677Z,99.90
2022-12-08T17:41:28.810Z,99.90
2022-12-08T17:43:56.695Z,99.90
2022-12-08T17:46:24.087Z,99.90
2022-12-08T17:48:51.294Z,99.90
2022-12-08T17:51:18.889Z,99.90
2022-12-08T17:53:45.813Z,99.90
2022-12-08T17:56:20.586Z,99.90
2022-12-08T17:58:53.985Z,99.90
2022-12-08T18:01:23.242Z,99.90
2022-12-08T18:03:50.535Z,99.90
2022-12-08T18:06:17.762Z,99.90
2022-12-08T18:08:44.953Z,99.90
2022-12-08T18:11:18.711Z,99.90
2022-12-08T18:13:47.937Z,99.90
2022-12-08T18:16:15.575Z,99.90
2022-12-08T18:18:42.356Z,99.90
2022-12-08T18:21:09.709Z,99.90
2022-12-08T18:23:42.568Z,99.90
2022-12-08T18:26:13.363Z,99.90
2022-12-08T18:28:41.330Z,99.90
2022-12-08T18:31:20.842Z,99.90
2022-12-08T18:33:49.574Z,99.90
2022-12-08T18:36:21.365Z,99.90
2022-12-08T18:38:55.132Z,99.90
2022-12-08T18:41:25.878Z,99.90
2022-12-08T18:43:57.164Z,99.90
2022-12-08T18:46:25.258Z,99.90
2022-12-08T18:48:52.633Z,99.90
2022-12-08T18:51:23.033Z,99.90
2022-12-08T18:53:51.664Z,99.90
2022-12-08T18:56:25.882Z,99.90
2022-12-08T18:58:55.395Z,99.90
2022-12-08T19:01:25.527Z,99.90
2022-12-08T19:04:19.721Z,99.90
2022-12-08T19:06:40.612Z,99.90
2022-12-08T19:09:12.446Z,99.90
2022-12-08T19:11:40.996Z,99.90
2022-12-08T19:14:08.200Z,99.90
2022-12-08T19:16:35.875Z,99.90
2022-12-08T19:19:04.690Z,99.90
2022-12-08T19:21:32.839Z,99.90
2022-12-08T19:24:00.052Z,99.90
2022-12-08T19:26:28.594Z,99.90
2022-12-08T19:28:58.108Z,99.90
2022-12-08T19:31:25.340Z,99.90
2022-12-08T19:33:52.259Z,99.90
2022-12-08T19:36:22.623Z,99.90
2022-12-08T19:39:08.723Z,99.90
2022-12-08T19:41:55.410Z,99.90
2022-12-08T19:44:34.155Z,99.90
2022-12-08T19:47:01.889Z,99.90
2022-12-08T19:49:29.332Z,99.90
2022-12-08T19:51:56.632Z,99.90
2022-12-08T19:54:23.873Z,99.90
2022-12-08T19:56:50.779Z,99.90
2022-12-08T19:59:18.094Z,99.90
2022-12-08T20:01:47.903Z,99.90
2022-12-08T20:04:16.191Z,99.90
2022-12-08T20:06:45.589Z,99.90
2022-12-08T20:09:14.470Z,99.90
2022-12-08T20:11:41.884Z,99.90
2022-12-08T20:14:08.937Z,99.90
2022-12-08T20:16:36.066Z,99.90
2022-12-08T20:19:03.600Z,99.90
2022-12-08T20:21:30.374Z,99.90
2022-12-08T20:23:57.125Z,99.90
2022-12-08T20:26:24.399Z,99.90
2022-12-08T20:28:54.132Z,99.90
2022-12-08T20:31:28.031Z,99.90
2022-12-08T20:33:55.436Z,99.90
2022-12-08T20:36:24.218Z,99.90
2022-12-08T20:38:54.237Z,99.90
2022-12-08T20:41:23.214Z,99.90
2022-12-08T20:43:51.963Z,99.90
2022-12-08T20:46:20.760Z,99.90
2022-12-08T20:48:48.433Z,99.90
2022-12-08T20:51:19.398Z,99.90
2022-12-08T20:53:47.150Z,99.90
2022-12-08T20:56:18.027Z,99.90
2022-12-08T20:58:45.774Z,99.90
2022-12-08T21:01:15.855Z,99.90
2022-12-08T21:03:44.888Z,99.90
2022-12-08T21:06:12.781Z,99.90
2022-12-08T21:08:40.808Z,99.90
2022-12-08T21:11:09.214Z,99.90
2022-12-08T21:13:39.437Z,99.90
2022-12-08T21:16:09.146Z,99.90
2022-12-08T21:18:39.713Z,99.90
2022-12-08T21:21:14.335Z,99.90
2022-12-08T21:23:42.397Z,99.90
2022-12-08T21:26:15.600Z,99.90
2022-12-08T21:28:43.577Z,99.90
2022-12-08T21:31:14.977Z,99.90
2022-12-08T21:33:43.077Z,99.90
2022-12-08T21:36:17.744Z,99.90
2022-12-08T21:38:46.270Z,99.90
2022-12-08T21:41:37.266Z,99.90
2022-12-08T21:44:06.022Z,99.90
2022-12-08T21:46:33.123Z,99.90
2022-12-08T21:48:59.950Z,99.90
2022-12-08T21:51:26.907Z,99.90
2022-12-08T21:53:54.084Z,99.90
2022-12-08T21:56:20.832Z,99.90
2022-12-08T21:58:47.668Z,99.90
2022-12-08T22:01:14.532Z,99.90
2022-12-08T22:03:41.932Z,99.90
2022-12-08T22:06:12.764Z,99.90
2022-12-08T22:08:41.185Z,99.90
2022-12-08T22:11:10.666Z,99.90
2022-12-08T22:13:40.878Z,99.90
2022-12-08T22:16:12.076Z,99.90
2022-12-08T22:18:39.155Z,99.90
2022-12-08T22:21:17.304Z,99.90
2022-12-08T22:23:45.211Z,99.90
2022-12-08T22:26:12.672Z,99.90
2022-12-08T22:28:42.041Z,99.90
2022-12-08T22:31:16.092Z,99.90
2022-12-08T22:33:44.281Z,99.90
2022-12-08T22:36:23.035Z,99.90
2022-12-08T22:38:51.542Z,99.90
2022-12-08T22:41:19.483Z,99.90
2022-12-08T22:43:47.911Z,99.90
2022-12-08T22:46:18.540Z,99.90
2022-12-08T22:48:45.732Z,99.90
2022-12-08T22:51:13.144Z,99.90
2022-12-08T22:53:40.666Z,99.90
2022-12-08T22:56:10.987Z,99.90
2022-12-08T22:58:39.947Z,99.90
2022-12-08T23:01:07.574Z,99.90
2022-12-08T23:03:34.799Z,99.90
2022-12-08T23:06:02.267Z,99.90
2022-12-08T23:08:29.413Z,99.90
2022-12-08T23:10:56.499Z,99.90
2022-12-08T23:13:23.547Z,99.90
2022-12-08T23:15:50.464Z,99.90
2022-12-08T23:18:21.682Z,99.90
2022-12-08T23:20:48.415Z,99.90
2022-12-08T23:23:16.224Z,99.90
2022-12-08T23:25:43.406Z,99.90
2022-12-08T23:28:11.256Z,99.90
2022-12-08T23:30:42.058Z,99.90
2022-12-08T23:33:09.100Z,99.90
2022-12-08T23:35:36.039Z,99.90
2022-12-08T23:38:03.627Z,99.90
2022-12-08T23:40:30.573Z,99.90
2022-12-08T23:42:57.285Z,99.90
2022-12-08T23:45:24.102Z,99.90
2022-12-08T23:47:50.942Z,99.90
2022-12-08T23:50:17.726Z,99.90
2022-12-08T23:52:45.015Z,99.90
2022-12-08T23:55:11.809Z,99.90
2022-12-08T23:57:38.777Z,99.90
